VOZ404 YSSY-YPAD
Flight info
| Callsign | VOZ404 |
|---|---|
| Flight time | 1h 48m |
| Altitude | 36000 |
| Route | TESAT A576 KADOM H44 MAXEM Q60 KAKLU H309 AD |
| Aircraft | B738/M-SDFGHIRWZ/LB1 |
Departure
| Time | 2026-05-01 12:27 |
|---|---|
| Airport | Sydney Kingsford Smith International Airport (YSSY) |
Arrival
| Time | 2026-05-01 14:16 |
|---|---|
| Airport | Adelaide International Airport (YPAD) |
| Time | Latitude | Longitude | Altitude | Speed | Heading |
|---|---|---|---|---|---|
| 2026-05-01 12:02 | -33.93659 | 151.17882 | 29 ft | 0 kts | 90° |
| 2026-05-01 12:16 | -33.93659 | 151.17872 | 29 ft | 4 kts | 87° |
| 2026-05-01 12:16 | -33.93662 | 151.17840 | 29 ft | 4 kts | 82° |
| 2026-05-01 12:16 | -33.93655 | 151.17816 | 29 ft | 4 kts | 162° |
| 2026-05-01 12:16 | -33.93638 | 151.17812 | 29 ft | 4 kts | 185° |
| 2026-05-01 12:17 | -33.93612 | 151.17819 | 29 ft | 4 kts | 194° |
| 2026-05-01 12:17 | -33.93605 | 151.17822 | 29 ft | 0 kts | 190° |
| 2026-05-01 12:20 | -33.93613 | 151.17820 | 29 ft | 4 kts | 190° |
| 2026-05-01 12:21 | -33.93656 | 151.17809 | 29 ft | 7 kts | 193° |
| 2026-05-01 12:21 | -33.93702 | 151.17795 | 29 ft | 7 kts | 194° |
| 2026-05-01 12:21 | -33.93748 | 151.17781 | 29 ft | 7 kts | 194° |
| 2026-05-01 12:21 | -33.93794 | 151.17767 | 29 ft | 7 kts | 194° |
| 2026-05-01 12:22 | -33.93856 | 151.17767 | 29 ft | 10 kts | 170° |
| 2026-05-01 12:22 | -33.93934 | 151.17787 | 28 ft | 13 kts | 166° |
| 2026-05-01 12:22 | -33.94027 | 151.17813 | 28 ft | 15 kts | 168° |
| 2026-05-01 12:22 | -33.94132 | 151.17839 | 28 ft | 16 kts | 168° |
| 2026-05-01 12:23 | -33.94237 | 151.17866 | 29 ft | 16 kts | 168° |
| 2026-05-01 12:23 | -33.94349 | 151.17895 | 29 ft | 17 kts | 167° |
| 2026-05-01 12:23 | -33.94468 | 151.17894 | 29 ft | 18 kts | 206° |
| 2026-05-01 12:23 | -33.94593 | 151.17900 | 29 ft | 19 kts | 167° |
| 2026-05-01 12:24 | -33.94725 | 151.17935 | 29 ft | 20 kts | 168° |
| 2026-05-01 12:24 | -33.94865 | 151.17970 | 29 ft | 21 kts | 168° |
| 2026-05-01 12:24 | -33.94986 | 151.18001 | 29 ft | 16 kts | 168° |
| 2026-05-01 12:24 | -33.95095 | 151.18046 | 29 ft | 17 kts | 134° |
| 2026-05-01 12:25 | -33.95088 | 151.18169 | 29 ft | 16 kts | 78° |
| 2026-05-01 12:25 | -33.95037 | 151.18462 | 29 ft | 20 kts | 78° |
| 2026-05-01 12:25 | -33.95002 | 151.18643 | 29 ft | 22 kts | 77° |
| 2026-05-01 12:26 | -33.94987 | 151.18792 | 24 ft | 18 kts | 99° |
| 2026-05-01 12:26 | -33.95046 | 151.18849 | 25 ft | 3 kts | 167° |
| 2026-05-01 12:26 | -33.95295 | 151.18914 | 24 ft | 74 kts | 167° |
| 2026-05-01 12:27 | -33.96031 | 151.19107 | 27 ft | 139 kts | 168° |
| 2026-05-01 12:27 | -33.98244 | 151.19663 | 1061 ft | 174 kts | 177° |
| 2026-05-01 12:28 | -34.00228 | 151.18254 | 2747 ft | 150 kts | 239° |
| 2026-05-01 12:28 | -34.00815 | 151.17090 | 3053 ft | 178 kts | 226° |
| 2026-05-01 12:28 | -34.02446 | 151.14488 | 3587 ft | 225 kts | 271° |
| 2026-05-01 12:29 | -34.01980 | 151.12674 | 3803 ft | 236 kts | 306° |
| 2026-05-01 12:29 | -34.01047 | 151.11004 | 4216 ft | 244 kts | 307° |
| 2026-05-01 12:29 | -33.99266 | 151.07471 | 5210 ft | 259 kts | 302° |
| 2026-05-01 12:30 | -33.97514 | 151.03424 | 6470 ft | 274 kts | 300° |
| 2026-05-01 12:30 | -33.96688 | 151.01347 | 7284 ft | 276 kts | 299° |
| 2026-05-01 12:30 | -33.95876 | 150.99232 | 8010 ft | 280 kts | 298° |
| 2026-05-01 12:31 | -33.95070 | 150.97077 | 8741 ft | 284 kts | 297° |
| 2026-05-01 12:31 | -33.94267 | 150.94886 | 9482 ft | 288 kts | 296° |
| 2026-05-01 12:31 | -33.93460 | 150.92659 | 10211 ft | 293 kts | 296° |
| 2026-05-01 12:31 | -33.92622 | 150.90331 | 10471 ft | 314 kts | 295° |
| 2026-05-01 12:32 | -33.91726 | 150.87829 | 10639 ft | 336 kts | 295° |
| 2026-05-01 12:32 | -33.89815 | 150.82455 | 11551 ft | 356 kts | 295° |
| 2026-05-01 12:32 | -33.88840 | 150.79704 | 12244 ft | 358 kts | 294° |
| 2026-05-01 12:33 | -33.87861 | 150.76938 | 12931 ft | 361 kts | 294° |
| 2026-05-01 12:33 | -33.86872 | 150.74149 | 13625 ft | 364 kts | 294° |
| 2026-05-01 12:33 | -33.85873 | 150.71334 | 14326 ft | 367 kts | 294° |
| 2026-05-01 12:33 | -33.84865 | 150.68499 | 14956 ft | 371 kts | 294° |
| 2026-05-01 12:34 | -33.83847 | 150.65637 | 15590 ft | 374 kts | 294° |
| 2026-05-01 12:34 | -33.82818 | 150.62748 | 16239 ft | 378 kts | 294° |
| 2026-05-01 12:34 | -33.81776 | 150.59824 | 16880 ft | 381 kts | 294° |
| 2026-05-01 12:34 | -33.80726 | 150.56882 | 17505 ft | 385 kts | 294° |
| 2026-05-01 12:35 | -33.79663 | 150.53903 | 18121 ft | 389 kts | 294° |
| 2026-05-01 12:35 | -33.78588 | 150.50896 | 18726 ft | 392 kts | 294° |
| 2026-05-01 12:35 | -33.77506 | 150.47870 | 19263 ft | 395 kts | 294° |
| 2026-05-01 12:35 | -33.76417 | 150.44830 | 19880 ft | 395 kts | 294° |
| 2026-05-01 12:36 | -33.75334 | 150.41806 | 20589 ft | 394 kts | 294° |
| 2026-05-01 12:36 | -33.74238 | 150.38749 | 21068 ft | 399 kts | 294° |
| 2026-05-01 12:36 | -33.73144 | 150.35703 | 21559 ft | 403 kts | 294° |
| 2026-05-01 12:36 | -33.72108 | 150.32559 | 22098 ft | 406 kts | 287° |
| 2026-05-01 12:37 | -33.71522 | 150.29241 | 22626 ft | 408 kts | 278° |
| 2026-05-01 12:37 | -33.71376 | 150.25817 | 23148 ft | 412 kts | 268° |
| 2026-05-01 12:37 | -33.71631 | 150.22372 | 23653 ft | 415 kts | 265° |
| 2026-05-01 12:37 | -33.71955 | 150.18917 | 24105 ft | 419 kts | 264° |
| 2026-05-01 12:38 | -33.72293 | 150.15430 | 24522 ft | 421 kts | 264° |
| 2026-05-01 12:38 | -33.72625 | 150.11927 | 24951 ft | 423 kts | 265° |
| 2026-05-01 12:38 | -33.72948 | 150.08418 | 25395 ft | 424 kts | 265° |
| 2026-05-01 12:38 | -33.73262 | 150.04890 | 25805 ft | 426 kts | 265° |
| 2026-05-01 12:39 | -33.73571 | 150.01343 | 26207 ft | 428 kts | 264° |
| 2026-05-01 12:39 | -33.73881 | 149.97737 | 26630 ft | 429 kts | 264° |
| 2026-05-01 12:39 | -33.74182 | 149.94206 | 27001 ft | 431 kts | 264° |
| 2026-05-01 12:39 | -33.74488 | 149.90610 | 27341 ft | 434 kts | 264° |
| 2026-05-01 12:40 | -33.74795 | 149.86990 | 27704 ft | 436 kts | 264° |
| 2026-05-01 12:40 | -33.75105 | 149.83317 | 28087 ft | 437 kts | 264° |
| 2026-05-01 12:40 | -33.75409 | 149.79714 | 28437 ft | 439 kts | 264° |
| 2026-05-01 12:40 | -33.75715 | 149.76062 | 28825 ft | 440 kts | 264° |
| 2026-05-01 12:41 | -33.76023 | 149.72393 | 29192 ft | 441 kts | 264° |
| 2026-05-01 12:41 | -33.76331 | 149.68701 | 29473 ft | 444 kts | 264° |
| 2026-05-01 12:41 | -33.76639 | 149.64999 | 29765 ft | 447 kts | 264° |
| 2026-05-01 12:41 | -33.76947 | 149.61281 | 30180 ft | 446 kts | 264° |
| 2026-05-01 12:42 | -33.77252 | 149.57577 | 30696 ft | 442 kts | 264° |
| 2026-05-01 12:42 | -33.77551 | 149.53928 | 31261 ft | 436 kts | 264° |
| 2026-05-01 12:42 | -33.77846 | 149.50321 | 31785 ft | 431 kts | 264° |
| 2026-05-01 12:42 | -33.78137 | 149.46741 | 32210 ft | 429 kts | 264° |
| 2026-05-01 12:43 | -33.78426 | 149.43185 | 32617 ft | 427 kts | 264° |
| 2026-05-01 12:43 | -33.78711 | 149.39655 | 33031 ft | 424 kts | 264° |
| 2026-05-01 12:43 | -33.78995 | 149.36129 | 33479 ft | 421 kts | 264° |
| 2026-05-01 12:43 | -33.79275 | 149.32643 | 33938 ft | 417 kts | 264° |
| 2026-05-01 12:44 | -33.79553 | 149.29175 | 34348 ft | 415 kts | 264° |
| 2026-05-01 12:44 | -33.79828 | 149.25725 | 34641 ft | 414 kts | 264° |
| 2026-05-01 12:44 | -33.80377 | 149.18805 | 35033 ft | 417 kts | 264° |
| 2026-05-01 12:45 | -33.80926 | 149.11842 | 35521 ft | 418 kts | 264° |
| 2026-05-01 12:45 | -33.81198 | 149.08372 | 35704 ft | 419 kts | 264° |
| 2026-05-01 12:45 | -33.81471 | 149.04872 | 35929 ft | 419 kts | 264° |
| 2026-05-01 12:46 | -33.81743 | 149.01372 | 36154 ft | 419 kts | 265° |
| 2026-05-01 12:46 | -33.82013 | 148.97882 | 36342 ft | 420 kts | 265° |
| 2026-05-01 12:46 | -33.82557 | 148.90822 | 36339 ft | 425 kts | 265° |
| 2026-05-01 12:47 | -33.83006 | 148.84959 | 36332 ft | 421 kts | 265° |
| 2026-05-01 12:47 | -33.83539 | 148.77937 | 36331 ft | 417 kts | 265° |
| 2026-05-01 12:48 | -33.84064 | 148.70994 | 36328 ft | 416 kts | 265° |
| 2026-05-01 12:48 | -33.84634 | 148.64069 | 36329 ft | 417 kts | 262° |
| 2026-05-01 12:49 | -33.85727 | 148.57219 | 36331 ft | 417 kts | 259° |
| 2026-05-01 12:49 | -33.86931 | 148.50377 | 36338 ft | 419 kts | 259° |
| 2026-05-01 12:50 | -33.88114 | 148.43491 | 36330 ft | 421 kts | 259° |
| 2026-05-01 12:50 | -33.89271 | 148.36568 | 36325 ft | 423 kts | 260° |
| 2026-05-01 12:51 | -33.90418 | 148.29617 | 36323 ft | 424 kts | 260° |
| 2026-05-01 12:52 | -33.92135 | 148.19141 | 36318 ft | 426 kts | 260° |
| 2026-05-01 12:52 | -33.93846 | 148.08649 | 36306 ft | 425 kts | 260° |
| 2026-05-01 12:53 | -33.95544 | 147.98183 | 36301 ft | 424 kts | 260° |
| 2026-05-01 12:54 | -33.96675 | 147.91175 | 36296 ft | 423 kts | 260° |
| 2026-05-01 12:54 | -33.98345 | 147.80779 | 36290 ft | 420 kts | 260° |
| 2026-05-01 12:55 | -33.99997 | 147.70442 | 36289 ft | 418 kts | 261° |
| 2026-05-01 12:56 | -34.01088 | 147.63581 | 36296 ft | 416 kts | 261° |
| 2026-05-01 12:56 | -34.02172 | 147.56739 | 36292 ft | 415 kts | 261° |
| 2026-05-01 12:57 | -34.03248 | 147.49918 | 36294 ft | 414 kts | 261° |
| 2026-05-01 12:57 | -34.04855 | 147.39688 | 36285 ft | 414 kts | 261° |
| 2026-05-01 12:58 | -34.05921 | 147.32872 | 36292 ft | 413 kts | 261° |
| 2026-05-01 12:59 | -34.07511 | 147.22654 | 36285 ft | 413 kts | 261° |
| 2026-05-01 12:59 | -34.09092 | 147.12436 | 36281 ft | 413 kts | 261° |
| 2026-05-01 13:00 | -34.10664 | 147.02215 | 36288 ft | 413 kts | 261° |
| 2026-05-01 13:01 | -34.12229 | 146.91981 | 36270 ft | 414 kts | 261° |
| 2026-05-01 13:02 | -34.13794 | 146.81695 | 36270 ft | 414 kts | 262° |
| 2026-05-01 13:07 | -34.24933 | 146.06619 | 36252 ft | 413 kts | 262° |
| 2026-05-01 13:08 | -34.25837 | 145.99712 | 36252 ft | 413 kts | 264° |
| 2026-05-01 13:08 | -34.26667 | 145.92842 | 36240 ft | 413 kts | 264° |
| 2026-05-01 13:09 | -34.27497 | 145.85978 | 36241 ft | 412 kts | 264° |
| 2026-05-01 13:09 | -34.28332 | 145.79124 | 36239 ft | 412 kts | 264° |
| 2026-05-01 13:10 | -34.29167 | 145.72274 | 36237 ft | 412 kts | 264° |
| 2026-05-01 13:10 | -34.29998 | 145.65435 | 36233 ft | 411 kts | 264° |
| 2026-05-01 13:11 | -34.30824 | 145.58598 | 36242 ft | 411 kts | 264° |
| 2026-05-01 13:11 | -34.31646 | 145.51774 | 36234 ft | 411 kts | 264° |
| 2026-05-01 13:12 | -34.32466 | 145.44921 | 36225 ft | 410 kts | 264° |
| 2026-05-01 13:12 | -34.33281 | 145.38086 | 36227 ft | 410 kts | 264° |
| 2026-05-01 13:13 | -34.34090 | 145.31258 | 36225 ft | 410 kts | 264° |
| 2026-05-01 13:13 | -34.34896 | 145.24425 | 36224 ft | 410 kts | 264° |
| 2026-05-01 13:14 | -34.35699 | 145.17590 | 36211 ft | 410 kts | 264° |
| 2026-05-01 13:14 | -34.36497 | 145.10760 | 36225 ft | 410 kts | 264° |
| 2026-05-01 13:15 | -34.37298 | 145.03875 | 36222 ft | 410 kts | 264° |
| 2026-05-01 13:15 | -34.38090 | 144.97032 | 36227 ft | 410 kts | 264° |
| 2026-05-01 13:16 | -34.38877 | 144.90189 | 36208 ft | 410 kts | 264° |
| 2026-05-01 13:16 | -34.39661 | 144.83345 | 36209 ft | 410 kts | 265° |
| 2026-05-01 13:17 | -34.41216 | 144.69667 | 36211 ft | 410 kts | 265° |
| 2026-05-01 13:18 | -34.42371 | 144.59418 | 36197 ft | 409 kts | 265° |
| 2026-05-01 13:18 | -34.43136 | 144.52583 | 36193 ft | 409 kts | 265° |
| 2026-05-01 13:19 | -34.43896 | 144.45755 | 36200 ft | 409 kts | 265° |
| 2026-05-01 13:20 | -34.45029 | 144.35517 | 36191 ft | 409 kts | 265° |
| 2026-05-01 13:20 | -34.45779 | 144.28698 | 36187 ft | 408 kts | 265° |
| 2026-05-01 13:21 | -34.46775 | 144.19580 | 36184 ft | 408 kts | 265° |
| 2026-05-01 13:21 | -34.47514 | 144.12770 | 36183 ft | 408 kts | 265° |
| 2026-05-01 13:22 | -34.48250 | 144.05954 | 36181 ft | 408 kts | 265° |
| 2026-05-01 13:22 | -34.48982 | 143.99143 | 36178 ft | 408 kts | 265° |
| 2026-05-01 13:23 | -34.49710 | 143.92325 | 36171 ft | 408 kts | 265° |
| 2026-05-01 13:23 | -34.50434 | 143.85513 | 36168 ft | 408 kts | 265° |
| 2026-05-01 13:24 | -34.51156 | 143.78689 | 36171 ft | 408 kts | 265° |
| 2026-05-01 13:25 | -34.52231 | 143.68449 | 36176 ft | 408 kts | 266° |
| 2026-05-01 13:25 | -34.52943 | 143.61620 | 36166 ft | 409 kts | 266° |
| 2026-05-01 13:26 | -34.53652 | 143.54778 | 36162 ft | 409 kts | 266° |
| 2026-05-01 13:26 | -34.54362 | 143.47898 | 36167 ft | 409 kts | 266° |
| 2026-05-01 13:27 | -34.55064 | 143.41054 | 36156 ft | 409 kts | 266° |
| 2026-05-01 13:27 | -34.56108 | 143.30798 | 36155 ft | 408 kts | 266° |
| 2026-05-01 13:28 | -34.57141 | 143.20568 | 36159 ft | 407 kts | 266° |
| 2026-05-01 13:29 | -34.58501 | 143.06967 | 36149 ft | 405 kts | 266° |
| 2026-05-01 13:31 | -34.60501 | 142.86666 | 36142 ft | 403 kts | 266° |
| 2026-05-01 13:32 | -34.62135 | 142.69820 | 36137 ft | 402 kts | 267° |
| 2026-05-01 13:33 | -34.63713 | 142.52978 | 36123 ft | 401 kts | 268° |
| 2026-05-01 13:34 | -34.64450 | 142.39428 | 36121 ft | 401 kts | 270° |
| 2026-05-01 13:35 | -34.64995 | 142.29296 | 36130 ft | 401 kts | 269° |
| 2026-05-01 13:36 | -34.65555 | 142.19142 | 36113 ft | 402 kts | 270° |
| 2026-05-01 13:36 | -34.66111 | 142.08970 | 36108 ft | 403 kts | 270° |
| 2026-05-01 13:37 | -34.66477 | 142.02176 | 36114 ft | 403 kts | 270° |
| 2026-05-01 13:37 | -34.66839 | 141.95388 | 36101 ft | 403 kts | 270° |
| 2026-05-01 13:38 | -34.67375 | 141.85202 | 36097 ft | 403 kts | 270° |
| 2026-05-01 13:39 | -34.67728 | 141.78415 | 36101 ft | 403 kts | 270° |
| 2026-05-01 13:39 | -34.68076 | 141.71626 | 36096 ft | 403 kts | 270° |
| 2026-05-01 13:40 | -34.68421 | 141.64842 | 36100 ft | 402 kts | 270° |
| 2026-05-01 13:40 | -34.68764 | 141.58015 | 36090 ft | 402 kts | 270° |
| 2026-05-01 13:41 | -34.69098 | 141.51295 | 36092 ft | 402 kts | 270° |
| 2026-05-01 13:41 | -34.69434 | 141.44464 | 36086 ft | 402 kts | 270° |
| 2026-05-01 13:42 | -34.69763 | 141.37687 | 36088 ft | 402 kts | 270° |
| 2026-05-01 13:42 | -34.70088 | 141.30909 | 36094 ft | 402 kts | 271° |
| 2026-05-01 13:43 | -34.70410 | 141.24120 | 36078 ft | 403 kts | 271° |
| 2026-05-01 13:43 | -34.70729 | 141.17331 | 36079 ft | 403 kts | 271° |
| 2026-05-01 13:44 | -34.71044 | 141.10532 | 36084 ft | 403 kts | 271° |
| 2026-05-01 13:44 | -34.71355 | 141.03740 | 36072 ft | 403 kts | 271° |
| 2026-05-01 13:45 | -34.71662 | 140.96937 | 36064 ft | 403 kts | 271° |
| 2026-05-01 13:45 | -34.71966 | 140.90140 | 36065 ft | 403 kts | 271° |
| 2026-05-01 13:46 | -34.72266 | 140.83319 | 35740 ft | 407 kts | 271° |
| 2026-05-01 13:46 | -34.72416 | 140.79908 | 35381 ft | 402 kts | 271° |
| 2026-05-01 13:46 | -34.72564 | 140.76535 | 34961 ft | 397 kts | 271° |
| 2026-05-01 13:46 | -34.72709 | 140.73202 | 34550 ft | 394 kts | 271° |
| 2026-05-01 13:47 | -34.72850 | 140.69897 | 34155 ft | 390 kts | 271° |
| 2026-05-01 13:47 | -34.72990 | 140.66605 | 33698 ft | 388 kts | 271° |
| 2026-05-01 13:47 | -34.73128 | 140.63347 | 33265 ft | 385 kts | 272° |
| 2026-05-01 13:47 | -34.73264 | 140.60115 | 32831 ft | 381 kts | 272° |
| 2026-05-01 13:48 | -34.73400 | 140.56867 | 32402 ft | 378 kts | 272° |
| 2026-05-01 13:48 | -34.73531 | 140.53724 | 32016 ft | 375 kts | 272° |
| 2026-05-01 13:48 | -34.73662 | 140.50498 | 31269 ft | 381 kts | 272° |
| 2026-05-01 13:48 | -34.73792 | 140.47288 | 30817 ft | 380 kts | 272° |
| 2026-05-01 13:49 | -34.73923 | 140.44101 | 30408 ft | 375 kts | 272° |
| 2026-05-01 13:49 | -34.74051 | 140.40949 | 29986 ft | 373 kts | 273° |
| 2026-05-01 13:49 | -34.74178 | 140.37816 | 29561 ft | 370 kts | 273° |
| 2026-05-01 13:49 | -34.74303 | 140.34704 | 29126 ft | 367 kts | 273° |
| 2026-05-01 13:50 | -34.74425 | 140.31617 | 28714 ft | 364 kts | 273° |
| 2026-05-01 13:50 | -34.74546 | 140.28559 | 28320 ft | 360 kts | 273° |
| 2026-05-01 13:50 | -34.74665 | 140.25533 | 27923 ft | 357 kts | 273° |
| 2026-05-01 13:50 | -34.74782 | 140.22531 | 27530 ft | 354 kts | 273° |
| 2026-05-01 13:51 | -34.74897 | 140.19546 | 27144 ft | 352 kts | 273° |
| 2026-05-01 13:51 | -34.75010 | 140.16589 | 26777 ft | 349 kts | 274° |
| 2026-05-01 13:51 | -34.75122 | 140.13645 | 26394 ft | 347 kts | 274° |
| 2026-05-01 13:51 | -34.75233 | 140.10725 | 26016 ft | 345 kts | 274° |
| 2026-05-01 13:52 | -34.75342 | 140.07816 | 25645 ft | 343 kts | 274° |
| 2026-05-01 13:52 | -34.75450 | 140.04923 | 25237 ft | 343 kts | 274° |
| 2026-05-01 13:52 | -34.75557 | 140.02036 | 24889 ft | 341 kts | 274° |
| 2026-05-01 13:52 | -34.75663 | 139.99165 | 24525 ft | 339 kts | 274° |
| 2026-05-01 13:53 | -34.75768 | 139.96308 | 24165 ft | 338 kts | 274° |
| 2026-05-01 13:53 | -34.75941 | 139.91528 | 23511 ft | 337 kts | 274° |
| 2026-05-01 13:53 | -34.76077 | 139.87763 | 22958 ft | 335 kts | 274° |
| 2026-05-01 13:54 | -34.76179 | 139.84937 | 22569 ft | 333 kts | 274° |
| 2026-05-01 13:54 | -34.76247 | 139.83036 | 22315 ft | 332 kts | 274° |
| 2026-05-01 13:54 | -34.76377 | 139.79340 | 21832 ft | 329 kts | 274° |
| 2026-05-01 13:54 | -34.76475 | 139.76565 | 21467 ft | 328 kts | 274° |
| 2026-05-01 13:55 | -34.76540 | 139.74696 | 21224 ft | 327 kts | 274° |
| 2026-05-01 13:55 | -34.76635 | 139.71946 | 20880 ft | 325 kts | 274° |
| 2026-05-01 13:55 | -34.76729 | 139.69201 | 20515 ft | 324 kts | 274° |
| 2026-05-01 13:55 | -34.76823 | 139.66467 | 20170 ft | 323 kts | 274° |
| 2026-05-01 13:56 | -34.76916 | 139.63742 | 19821 ft | 322 kts | 274° |
| 2026-05-01 13:56 | -34.77007 | 139.61022 | 19466 ft | 321 kts | 274° |
| 2026-05-01 13:56 | -34.77098 | 139.58312 | 19121 ft | 321 kts | 274° |
| 2026-05-01 13:56 | -34.77189 | 139.55602 | 18763 ft | 320 kts | 274° |
| 2026-05-01 13:57 | -34.77278 | 139.52899 | 18406 ft | 320 kts | 274° |
| 2026-05-01 13:57 | -34.77367 | 139.50193 | 18028 ft | 320 kts | 274° |
| 2026-05-01 13:57 | -34.77456 | 139.47495 | 17644 ft | 319 kts | 274° |
| 2026-05-01 13:57 | -34.77543 | 139.44809 | 17271 ft | 318 kts | 274° |
| 2026-05-01 13:58 | -34.77644 | 139.42129 | 16900 ft | 318 kts | 271° |
| 2026-05-01 13:58 | -34.78211 | 139.39489 | 16379 ft | 333 kts | 253° |
| 2026-05-01 13:58 | -34.79178 | 139.36916 | 15949 ft | 335 kts | 251° |
| 2026-05-01 13:58 | -34.80177 | 139.34367 | 15566 ft | 330 kts | 251° |
| 2026-05-01 13:59 | -34.81159 | 139.31877 | 15210 ft | 325 kts | 251° |
| 2026-05-01 13:59 | -34.82126 | 139.29402 | 14878 ft | 323 kts | 251° |
| 2026-05-01 13:59 | -34.83081 | 139.26931 | 14528 ft | 322 kts | 251° |
| 2026-05-01 13:59 | -34.84028 | 139.24467 | 14183 ft | 321 kts | 251° |
| 2026-05-01 14:00 | -34.84969 | 139.22005 | 13849 ft | 320 kts | 251° |
| 2026-05-01 14:00 | -34.85905 | 139.19549 | 13474 ft | 319 kts | 251° |
| 2026-05-01 14:00 | -34.86838 | 139.17102 | 13107 ft | 318 kts | 251° |
| 2026-05-01 14:00 | -34.87762 | 139.14667 | 12752 ft | 316 kts | 251° |
| 2026-05-01 14:01 | -34.88694 | 139.12204 | 12403 ft | 315 kts | 251° |
| 2026-05-01 14:01 | -34.89609 | 139.09784 | 12053 ft | 314 kts | 251° |
| 2026-05-01 14:01 | -34.90518 | 139.07378 | 11713 ft | 313 kts | 251° |
| 2026-05-01 14:01 | -34.91426 | 139.04975 | 11375 ft | 311 kts | 251° |
| 2026-05-01 14:02 | -34.92327 | 139.02587 | 11043 ft | 310 kts | 251° |
| 2026-05-01 14:02 | -34.93228 | 139.00198 | 10713 ft | 309 kts | 251° |
| 2026-05-01 14:02 | -34.94124 | 138.97820 | 10364 ft | 309 kts | 250° |
| 2026-05-01 14:02 | -34.95011 | 138.95468 | 10217 ft | 301 kts | 250° |
| 2026-05-01 14:03 | -34.95872 | 138.93184 | 10088 ft | 293 kts | 250° |
| 2026-05-01 14:03 | -34.96717 | 138.90942 | 9887 ft | 289 kts | 251° |
| 2026-05-01 14:03 | -34.97552 | 138.88718 | 9580 ft | 289 kts | 251° |
| 2026-05-01 14:03 | -34.98386 | 138.86495 | 9281 ft | 288 kts | 251° |
| 2026-05-01 14:04 | -34.99209 | 138.84303 | 8987 ft | 282 kts | 251° |
| 2026-05-01 14:04 | -35.00022 | 138.82139 | 8681 ft | 277 kts | 251° |
| 2026-05-01 14:04 | -35.00814 | 138.80026 | 8401 ft | 272 kts | 251° |
| 2026-05-01 14:04 | -35.01592 | 138.77948 | 8118 ft | 267 kts | 251° |
| 2026-05-01 14:05 | -35.02356 | 138.75908 | 7844 ft | 261 kts | 252° |
| 2026-05-01 14:05 | -35.03103 | 138.73911 | 7575 ft | 257 kts | 252° |
| 2026-05-01 14:05 | -35.03840 | 138.71937 | 7313 ft | 256 kts | 252° |
| 2026-05-01 14:05 | -35.04580 | 138.69949 | 7064 ft | 259 kts | 252° |
| 2026-05-01 14:06 | -35.05336 | 138.67918 | 6818 ft | 269 kts | 252° |
| 2026-05-01 14:06 | -35.06120 | 138.65805 | 6506 ft | 274 kts | 252° |
| 2026-05-01 14:06 | -35.06913 | 138.63683 | 6198 ft | 277 kts | 252° |
| 2026-05-01 14:06 | -35.07711 | 138.61543 | 5905 ft | 277 kts | 252° |
| 2026-05-01 14:07 | -35.08506 | 138.59399 | 5617 ft | 278 kts | 252° |
| 2026-05-01 14:07 | -35.09308 | 138.57250 | 5346 ft | 278 kts | 252° |
| 2026-05-01 14:07 | -35.10109 | 138.55102 | 5059 ft | 278 kts | 252° |
| 2026-05-01 14:08 | -35.11689 | 138.50861 | 4742 ft | 268 kts | 253° |
| 2026-05-01 14:08 | -35.12454 | 138.48803 | 4471 ft | 264 kts | 253° |
| 2026-05-01 14:08 | -35.13203 | 138.46774 | 4327 ft | 251 kts | 257° |
| 2026-05-01 14:08 | -35.13448 | 138.44841 | 4211 ft | 213 kts | 289° |
| 2026-05-01 14:09 | -35.12975 | 138.43280 | 4128 ft | 185 kts | 307° |
| 2026-05-01 14:09 | -35.12266 | 138.42063 | 4039 ft | 169 kts | 323° |
| 2026-05-01 14:09 | -35.11374 | 138.41213 | 4001 ft | 158 kts | 330° |
| 2026-05-01 14:09 | -35.10504 | 138.40434 | 3833 ft | 153 kts | 330° |
| 2026-05-01 14:10 | -35.09632 | 138.39657 | 3671 ft | 157 kts | 330° |
| 2026-05-01 14:10 | -35.08755 | 138.38877 | 3483 ft | 155 kts | 330° |
| 2026-05-01 14:10 | -35.07885 | 138.38106 | 3304 ft | 154 kts | 330° |
| 2026-05-01 14:10 | -35.06983 | 138.37456 | 3085 ft | 147 kts | 352° |
| 2026-05-01 14:11 | -35.06014 | 138.37541 | 2940 ft | 138 kts | 14° |
| 2026-05-01 14:11 | -35.04579 | 138.39087 | 2607 ft | 139 kts | 38° |
| 2026-05-01 14:11 | -35.03948 | 138.39979 | 2436 ft | 140 kts | 40° |
| 2026-05-01 14:12 | -35.03342 | 138.40853 | 2303 ft | 128 kts | 39° |
| 2026-05-01 14:12 | -35.02803 | 138.41635 | 2132 ft | 115 kts | 39° |
| 2026-05-01 14:12 | -35.02297 | 138.42366 | 1986 ft | 114 kts | 38° |
| 2026-05-01 14:12 | -35.01780 | 138.43112 | 1855 ft | 115 kts | 39° |
| 2026-05-01 14:13 | -35.01278 | 138.43845 | 1699 ft | 110 kts | 39° |
| 2026-05-01 14:13 | -35.00934 | 138.44337 | 1607 ft | 115 kts | 43° |
| 2026-05-01 14:13 | -35.00201 | 138.45388 | 1417 ft | 132 kts | 43° |
| 2026-05-01 14:13 | -34.99606 | 138.46250 | 1242 ft | 131 kts | 45° |
| 2026-05-01 14:14 | -34.99033 | 138.47086 | 1066 ft | 127 kts | 47° |
| 2026-05-01 14:14 | -34.98467 | 138.47910 | 881 ft | 127 kts | 47° |
| 2026-05-01 14:14 | -34.97909 | 138.48720 | 642 ft | 132 kts | 47° |
| 2026-05-01 14:14 | -34.97325 | 138.49589 | 509 ft | 132 kts | 48° |
| 2026-05-01 14:15 | -34.96722 | 138.50484 | 394 ft | 139 kts | 46° |
| 2026-05-01 14:15 | -34.96088 | 138.51383 | 198 ft | 139 kts | 48° |
| 2026-05-01 14:15 | -34.95435 | 138.52342 | 42 ft | 148 kts | 48° |
| 2026-05-01 14:15 | -34.94834 | 138.53209 | 29 ft | 118 kts | 41° |
| 2026-05-01 14:16 | -34.94436 | 138.53781 | 25 ft | 58 kts | 51° |
| 2026-05-01 14:16 | -34.94256 | 138.54015 | 27 ft | 30 kts | 22° |
| 2026-05-01 14:16 | -34.94161 | 138.53986 | 26 ft | 0 kts | 318° |
| 2026-05-01 14:22 | -34.94160 | 138.53986 | 30 ft | 1 kts | 318° |
| 2026-05-01 14:22 | -34.94138 | 138.53965 | 27 ft | 8 kts | 322° |
| 2026-05-01 14:23 | -34.94086 | 138.53915 | 26 ft | 10 kts | 321° |
| 2026-05-01 14:23 | -34.94026 | 138.53892 | 25 ft | 9 kts | 11° |
| 2026-05-01 14:23 | -34.93977 | 138.53939 | 25 ft | 9 kts | 49° |
| 2026-05-01 14:23 | -34.93939 | 138.53998 | 26 ft | 8 kts | 52° |
| 2026-05-01 14:24 | -34.93900 | 138.54045 | 27 ft | 8 kts | 15° |
| 2026-05-01 14:24 | -34.93852 | 138.54016 | 26 ft | 8 kts | 317° |
| 2026-05-01 14:24 | -34.93835 | 138.53998 | 27 ft | 0 kts | 320° |
| 2026-05-01 14:24 | -34.93832 | 138.53995 | 25 ft | 2 kts | 320° |
| 2026-05-01 14:26 | -34.93831 | 138.53995 | 25 ft | 0 kts | 320° |